Time;durP1;ratioP1;P1;durP2;ratioP2;P2;SDS_P1;SDS_P2;PMS_P1;PMS_P2;Temp;Humidity;BMP_temperature;BMP_pressure;BME280_temperature;BME280_humidity;BME280_pressure;Samples;Min_cycle;Max_cycle;Signal;HPM_P1;HPM_P2
2022/01/06 00:00:50;;;;;;;4.65;1.9;;;;;;;0.7;97.40332;94814.11;;;;
2022/01/06 00:01:51;;;;;;;4.65;1.9;;;;;;;0.7;97.40332;94814.11;;;;
2022/01/06 00:02:53;;;;;;;4.65;1.9;;;;;;;0.7;97.40332;94814.11;;;;
2022/01/06 00:03:54;;;;;;;4.65;1.9;;;;;;;0.7;97.40332;94814.11;;;;
2022/01/06 00:04:54;;;;;;;4.65;1.9;;;;;;;0.7;97.40332;94814.11;;;;
2022/01/06 00:05:56;;;;;;;4.65;1.9;;;;;;;0.7;97.40332;94814.11;;;;
2022/01/06 00:06:56;;;;;;;4.65;1.9;;;;;;;0.7;97.40332;94814.11;;;;
2022/01/06 00:07:57;;;;;;;4.65;1.9;;;;;;;0.7;97.40332;94814.11;;;;
2022/01/06 00:08:59;;;;;;;8.349999;2.1;;;;;;;0.69;98.08594;94815.11;;;;
2022/01/06 00:10:00;;;;;;;8.349999;2.1;;;;;;;0.69;98.08594;94815.11;;;;
2022/01/06 00:11:00;;;;;;;8.349999;2.1;;;;;;;0.69;98.08594;94815.11;;;;
2022/01/06 00:12:02;;;;;;;8.349999;2.1;;;;;;;0.69;98.08594;94815.11;;;;
2022/01/06 00:13:09;;;;;;;8.349999;2.1;;;;;;;0.69;98.08594;94815.11;;;;
2022/01/06 00:14:15;;;;;;;8.349999;2.1;;;;;;;0.69;98.08594;94815.11;;;;
2022/01/06 00:15:31;;;;;;;8.349999;2.1;;;;;;;0.69;98.08594;94815.11;;;;
2022/01/06 00:16:39;;;;;;;8.349999;2.1;;;;;;;0.69;98.08594;94815.11;;;;
2022/01/06 00:17:46;;;;;;;8.349999;2.1;;;;;;;0.69;98.08594;94815.11;;;;
2022/01/06 00:23:47;;;;;;;5.7;1.9;;;;;;;0.72;98.20703;94821.89;;;;
2022/01/06 00:24:48;;;;;;;5.7;1.9;;;;;;;0.72;98.20703;94821.89;;;;
2022/01/06 00:25:48;;;;;;;5.7;1.9;;;;;;;0.72;98.20703;94821.89;;;;
2022/01/06 00:26:51;;;;;;;5.7;1.9;;;;;;;0.72;98.20703;94821.89;;;;
2022/01/06 00:27:51;;;;;;;5.7;1.9;;;;;;;0.72;98.20703;94821.89;;;;
2022/01/06 00:28:52;;;;;;;5.7;1.9;;;;;;;0.72;98.20703;94821.89;;;;
2022/01/06 00:29:52;;;;;;;5.7;1.9;;;;;;;0.72;98.20703;94821.89;;;;
2022/01/06 00:30:53;;;;;;;3.7;1.9;;;;;;;0.74;98.23438;94827.73;;;;
2022/01/06 00:31:54;;;;;;;3.7;1.9;;;;;;;0.74;98.23438;94827.73;;;;
2022/01/06 00:32:54;;;;;;;3.7;1.9;;;;;;;0.74;98.23438;94827.73;;;;
2022/01/06 00:33:55;;;;;;;3.7;1.9;;;;;;;0.74;98.23438;94827.73;;;;
2022/01/06 00:34:55;;;;;;;3.7;1.9;;;;;;;0.74;98.23438;94827.73;;;;
2022/01/06 00:35:56;;;;;;;3.7;1.9;;;;;;;0.74;98.23438;94827.73;;;;
2022/01/06 00:36:57;;;;;;;3.7;1.9;;;;;;;0.74;98.23438;94827.73;;;;
2022/01/06 00:37:57;;;;;;;3.7;1.9;;;;;;;0.74;98.23438;94827.73;;;;
2022/01/06 00:38:58;;;;;;;3.7;1.9;;;;;;;0.74;98.23438;94827.73;;;;
2022/01/06 00:39:58;;;;;;;3.7;1.9;;;;;;;0.74;98.23438;94827.73;;;;
2022/01/06 00:40:59;;;;;;;4.8;1.8;;;;;;;0.77;98.25098;94819.37;;;;
2022/01/06 00:42:00;;;;;;;4.8;1.8;;;;;;;0.77;98.25098;94819.37;;;;
2022/01/06 00:43:02;;;;;;;4.8;1.8;;;;;;;0.77;98.25098;94819.37;;;;
2022/01/06 00:44:05;;;;;;;4.8;1.8;;;;;;;0.77;98.25098;94819.37;;;;
2022/01/06 00:45:07;;;;;;;4.8;1.8;;;;;;;0.77;98.25098;94819.37;;;;
2022/01/06 00:46:09;;;;;;;4.8;1.8;;;;;;;0.77;98.25098;94819.37;;;;
2022/01/06 00:47:09;;;;;;;4.8;1.8;;;;;;;0.77;98.25098;94819.37;;;;
2022/01/06 00:48:10;;;;;;;4.8;1.8;;;;;;;0.77;98.25098;94819.37;;;;
2022/01/06 00:49:11;;;;;;;4.8;1.8;;;;;;;0.77;98.25098;94819.37;;;;
2022/01/06 00:50:11;;;;;;;4.8;1.8;;;;;;;0.77;98.25098;94819.37;;;;
2022/01/06 00:51:12;;;;;;;4.8;1.8;;;;;;;0.77;98.25098;94819.37;;;;
2022/01/06 00:52:12;;;;;;;3.65;1.95;;;;;;;0.72;98.24805;94823.64;;;;
2022/01/06 00:53:13;;;;;;;3.65;1.95;;;;;;;0.72;98.24805;94823.64;;;;
2022/01/06 00:54:13;;;;;;;3.65;1.95;;;;;;;0.72;98.24805;94823.64;;;;
2022/01/06 00:55:15;;;;;;;3.65;1.95;;;;;;;0.72;98.24805;94823.64;;;;
2022/01/06 00:56:16;;;;;;;3.65;1.95;;;;;;;0.72;98.24805;94823.64;;;;
2022/01/06 00:57:16;;;;;;;3.65;1.95;;;;;;;0.72;98.24805;94823.64;;;;
2022/01/06 00:58:17;;;;;;;3.65;1.95;;;;;;;0.72;98.24805;94823.64;;;;
2022/01/06 00:59:18;;;;;;;3.65;1.95;;;;;;;0.72;98.24805;94823.64;;;;
2022/01/06 01:00:18;;;;;;;3.65;1.95;;;;;;;0.72;98.24805;94823.64;;;;
2022/01/06 01:01:19;;;;;;;3.65;1.95;;;;;;;0.72;98.24805;94823.64;;;;
2022/01/06 01:02:19;;;;;;;4.6;2;;;;;;;0.64;98.47852;94842.33;;;;
2022/01/06 01:03:20;;;;;;;4.6;2;;;;;;;0.64;98.47852;94842.33;;;;
2022/01/06 01:04:22;;;;;;;4.6;2;;;;;;;0.64;98.47852;94842.33;;;;
2022/01/06 01:05:22;;;;;;;4.6;2;;;;;;;0.64;98.47852;94842.33;;;;
2022/01/06 01:06:23;;;;;;;4.6;2;;;;;;;0.64;98.47852;94842.33;;;;
2022/01/06 01:07:24;;;;;;;4.6;2;;;;;;;0.64;98.47852;94842.33;;;;
2022/01/06 01:08:24;;;;;;;4.6;2;;;;;;;0.64;98.47852;94842.33;;;;
2022/01/06 01:09:25;;;;;;;4.6;2;;;;;;;0.64;98.47852;94842.33;;;;
2022/01/06 01:10:26;;;;;;;4.6;2;;;;;;;0.64;98.47852;94842.33;;;;
2022/01/06 01:11:27;;;;;;;4.6;2;;;;;;;0.64;98.47852;94842.33;;;;
2022/01/06 01:12:28;;;;;;;4.6;2;;;;;;;0.64;98.47852;94842.33;;;;
2022/01/06 01:13:31;;;;;;;4.1;2.05;;;;;;;0.54;98.57031;94840.48;;;;
2022/01/06 01:14:42;;;;;;;4.1;2.05;;;;;;;0.54;98.57031;94840.48;;;;
2022/01/06 01:15:46;;;;;;;4.1;2.05;;;;;;;0.54;98.57031;94840.48;;;;
2022/01/06 01:16:54;;;;;;;4.1;2.05;;;;;;;0.54;98.57031;94840.48;;;;
2022/01/06 01:18:04;;;;;;;4.1;2.05;;;;;;;0.54;98.57031;94840.48;;;;
2022/01/06 01:19:10;;;;;;;4.1;2.05;;;;;;;0.54;98.57031;94840.48;;;;
2022/01/06 01:20:11;;;;;;;4.1;2.05;;;;;;;0.54;98.57031;94840.48;;;;
2022/01/06 01:21:11;;;;;;;4.1;2.05;;;;;;;0.54;98.57031;94840.48;;;;
2022/01/06 01:22:12;;;;;;;4.1;2.05;;;;;;;0.54;98.57031;94840.48;;;;
2022/01/06 01:23:12;;;;;;;4.1;2.05;;;;;;;0.54;98.57031;94840.48;;;;
2022/01/06 01:24:13;;;;;;;7.8;2.05;;;;;;;0.5;98.82129;94846.67;;;;
2022/01/06 01:25:14;;;;;;;7.8;2.05;;;;;;;0.5;98.82129;94846.67;;;;
2022/01/06 01:26:15;;;;;;;7.8;2.05;;;;;;;0.5;98.82129;94846.67;;;;
2022/01/06 01:27:20;;;;;;;7.8;2.05;;;;;;;0.5;98.82129;94846.67;;;;
2022/01/06 01:28:20;;;;;;;7.8;2.05;;;;;;;0.5;98.82129;94846.67;;;;
2022/01/06 01:29:22;;;;;;;7.8;2.05;;;;;;;0.5;98.82129;94846.67;;;;
2022/01/06 01:30:29;;;;;;;7.8;2.05;;;;;;;0.5;98.82129;94846.67;;;;
2022/01/06 01:31:36;;;;;;;7.8;2.05;;;;;;;0.5;98.82129;94846.67;;;;
2022/01/06 01:32:37;;;;;;;7.8;2.05;;;;;;;0.5;98.82129;94846.67;;;;
2022/01/06 01:33:40;;;;;;;7.8;2.05;;;;;;;0.5;98.82129;94846.67;;;;
2022/01/06 01:34:44;;;;;;;3;1.9;;;;;;;0.45;98.78906;94860.18;;;;
2022/01/06 01:35:45;;;;;;;3;1.9;;;;;;;0.45;98.78906;94860.18;;;;
2022/01/06 01:36:46;;;;;;;3;1.9;;;;;;;0.45;98.78906;94860.18;;;;
2022/01/06 01:37:46;;;;;;;3;1.9;;;;;;;0.45;98.78906;94860.18;;;;
2022/01/06 01:38:47;;;;;;;3;1.9;;;;;;;0.45;98.78906;94860.18;;;;
2022/01/06 01:39:48;;;;;;;3;1.9;;;;;;;0.45;98.78906;94860.18;;;;
2022/01/06 01:40:48;;;;;;;3;1.9;;;;;;;0.45;98.78906;94860.18;;;;
2022/01/06 01:41:48;;;;;;;3;1.9;;;;;;;0.45;98.78906;94860.18;;;;
2022/01/06 01:42:50;;;;;;;3;1.9;;;;;;;0.45;98.78906;94860.18;;;;
2022/01/06 01:43:53;;;;;;;3;1.9;;;;;;;0.45;98.78906;94860.18;;;;
2022/01/06 01:44:54;;;;;;;7.05;2.15;;;;;;;0.42;99.08203;94864.51;;;;
2022/01/06 01:45:57;;;;;;;7.05;2.15;;;;;;;0.42;99.08203;94864.51;;;;
2022/01/06 01:47:01;;;;;;;7.05;2.15;;;;;;;0.42;99.08203;94864.51;;;;
2022/01/06 01:48:06;;;;;;;7.05;2.15;;;;;;;0.42;99.08203;94864.51;;;;
2022/01/06 01:49:15;;;;;;;7.05;2.15;;;;;;;0.42;99.08203;94864.51;;;;
2022/01/06 01:50:16;;;;;;;7.05;2.15;;;;;;;0.42;99.08203;94864.51;;;;
2022/01/06 01:51:17;;;;;;;7.05;2.15;;;;;;;0.42;99.08203;94864.51;;;;
2022/01/06 01:52:17;;;;;;;7.05;2.15;;;;;;;0.42;99.08203;94864.51;;;;
2022/01/06 01:53:18;;;;;;;7.05;2.15;;;;;;;0.42;99.08203;94864.51;;;;
2022/01/06 01:54:19;;;;;;;7.05;2.15;;;;;;;0.42;99.08203;94864.51;;;;
2022/01/06 01:55:19;;;;;;;6.05;2.05;;;;;;;0.41;99.30957;94868.08;;;;
2022/01/06 01:56:24;;;;;;;6.05;2.05;;;;;;;0.41;99.30957;94868.08;;;;
2022/01/06 01:57:24;;;;;;;6.05;2.05;;;;;;;0.41;99.30957;94868.08;;;;
2022/01/06 01:58:26;;;;;;;6.05;2.05;;;;;;;0.41;99.30957;94868.08;;;;
2022/01/06 01:59:26;;;;;;;6.05;2.05;;;;;;;0.41;99.30957;94868.08;;;;
2022/01/06 02:00:27;;;;;;;6.05;2.05;;;;;;;0.41;99.30957;94868.08;;;;
2022/01/06 02:01:30;;;;;;;6.05;2.05;;;;;;;0.41;99.30957;94868.08;;;;
2022/01/06 02:02:30;;;;;;;6.05;2.05;;;;;;;0.41;99.30957;94868.08;;;;
2022/01/06 02:03:31;;;;;;;6.05;2.05;;;;;;;0.41;99.30957;94868.08;;;;
2022/01/06 02:04:31;;;;;;;6.05;2.05;;;;;;;0.41;99.30957;94868.08;;;;
2022/01/06 02:05:32;;;;;;;6.05;2.05;;;;;;;0.41;99.30957;94868.08;;;;
2022/01/06 02:06:33;;;;;;;5.049999;1.85;;;;;;;0.44;99.47168;94873.95;;;;
2022/01/06 02:07:33;;;;;;;5.049999;1.85;;;;;;;0.44;99.47168;94873.95;;;;
2022/01/06 02:08:35;;;;;;;5.049999;1.85;;;;;;;0.44;99.47168;94873.95;;;;
2022/01/06 02:09:36;;;;;;;5.049999;1.85;;;;;;;0.44;99.47168;94873.95;;;;
2022/01/06 02:10:36;;;;;;;5.049999;1.85;;;;;;;0.44;99.47168;94873.95;;;;
2022/01/06 02:11:37;;;;;;;5.049999;1.85;;;;;;;0.44;99.47168;94873.95;;;;
2022/01/06 02:12:39;;;;;;;5.049999;1.85;;;;;;;0.44;99.47168;94873.95;;;;
2022/01/06 02:13:40;;;;;;;5.049999;1.85;;;;;;;0.44;99.47168;94873.95;;;;
2022/01/06 02:14:45;;;;;;;5.049999;1.85;;;;;;;0.44;99.47168;94873.95;;;;
2022/01/06 02:15:45;;;;;;;5.049999;1.85;;;;;;;0.44;99.47168;94873.95;;;;
2022/01/06 02:16:46;;;;;;;3.85;1.75;;;;;;;0.49;99.56543;94878.69;;;;
2022/01/06 02:17:46;;;;;;;3.85;1.75;;;;;;;0.49;99.56543;94878.69;;;;
2022/01/06 02:18:47;;;;;;;3.85;1.75;;;;;;;0.49;99.56543;94878.69;;;;
2022/01/06 02:19:48;;;;;;;3.85;1.75;;;;;;;0.49;99.56543;94878.69;;;;
2022/01/06 02:20:53;;;;;;;3.85;1.75;;;;;;;0.49;99.56543;94878.69;;;;
2022/01/06 02:21:54;;;;;;;3.85;1.75;;;;;;;0.49;99.56543;94878.69;;;;
2022/01/06 02:22:55;;;;;;;3.85;1.75;;;;;;;0.49;99.56543;94878.69;;;;
2022/01/06 02:23:55;;;;;;;3.85;1.75;;;;;;;0.49;99.56543;94878.69;;;;
2022/01/06 02:24:56;;;;;;;3.85;1.75;;;;;;;0.49;99.56543;94878.69;;;;
2022/01/06 02:25:56;;;;;;;3.85;1.75;;;;;;;0.49;99.56543;94878.69;;;;
2022/01/06 02:26:57;;;;;;;3.85;1.75;;;;;;;0.49;99.56543;94878.69;;;;
2022/01/06 02:27:57;;;;;;;5.15;1.8;;;;;;;0.49;99.52637;94886.58;;;;
2022/01/06 02:28:59;;;;;;;5.15;1.8;;;;;;;0.49;99.52637;94886.58;;;;
2022/01/06 02:30:00;;;;;;;5.15;1.8;;;;;;;0.49;99.52637;94886.58;;;;
2022/01/06 02:31:00;;;;;;;5.15;1.8;;;;;;;0.49;99.52637;94886.58;;;;
2022/01/06 02:32:01;;;;;;;5.15;1.8;;;;;;;0.49;99.52637;94886.58;;;;
2022/01/06 02:33:08;;;;;;;5.15;1.8;;;;;;;0.49;99.52637;94886.58;;;;
2022/01/06 02:34:09;;;;;;;5.15;1.8;;;;;;;0.49;99.52637;94886.58;;;;
2022/01/06 02:35:09;;;;;;;5.15;1.8;;;;;;;0.49;99.52637;94886.58;;;;
2022/01/06 02:36:13;;;;;;;5.15;1.8;;;;;;;0.49;99.52637;94886.58;;;;
2022/01/06 02:37:13;;;;;;;5.15;1.8;;;;;;;0.49;99.52637;94886.58;;;;
2022/01/06 02:38:15;;;;;;;3.900001;1.9;;;;;;;0.53;99.63672;94895;;;;
2022/01/06 02:39:16;;;;;;;3.900001;1.9;;;;;;;0.53;99.63672;94895;;;;
2022/01/06 02:40:16;;;;;;;3.900001;1.9;;;;;;;0.53;99.63672;94895;;;;
2022/01/06 02:41:19;;;;;;;3.900001;1.9;;;;;;;0.53;99.63672;94895;;;;
2022/01/06 02:42:20;;;;;;;3.900001;1.9;;;;;;;0.53;99.63672;94895;;;;
2022/01/06 02:43:22;;;;;;;3.900001;1.9;;;;;;;0.53;99.63672;94895;;;;
2022/01/06 02:44:25;;;;;;;3.900001;1.9;;;;;;;0.53;99.63672;94895;;;;
2022/01/06 02:45:26;;;;;;;3.900001;1.9;;;;;;;0.53;99.63672;94895;;;;
2022/01/06 02:46:28;;;;;;;3.900001;1.9;;;;;;;0.53;99.63672;94895;;;;
2022/01/06 02:47:29;;;;;;;3.900001;1.9;;;;;;;0.53;99.63672;94895;;;;
2022/01/06 02:48:30;;;;;;;3.900001;1.9;;;;;;;0.53;99.63672;94895;;;;
2022/01/06 02:49:31;;;;;;;2.9;1.7;;;;;;;0.6;99.71484;94900.81;;;;
2022/01/06 02:50:32;;;;;;;2.9;1.7;;;;;;;0.6;99.71484;94900.81;;;;
2022/01/06 02:51:33;;;;;;;2.9;1.7;;;;;;;0.6;99.71484;94900.81;;;;
2022/01/06 02:52:33;;;;;;;2.9;1.7;;;;;;;0.6;99.71484;94900.81;;;;
2022/01/06 02:53:34;;;;;;;2.9;1.7;;;;;;;0.6;99.71484;94900.81;;;;
2022/01/06 02:54:35;;;;;;;2.9;1.7;;;;;;;0.6;99.71484;94900.81;;;;
2022/01/06 02:55:35;;;;;;;2.9;1.7;;;;;;;0.6;99.71484;94900.81;;;;
2022/01/06 02:56:38;;;;;;;2.9;1.7;;;;;;;0.6;99.71484;94900.81;;;;
2022/01/06 02:57:39;;;;;;;2.9;1.7;;;;;;;0.6;99.71484;94900.81;;;;
2022/01/06 02:58:41;;;;;;;2.9;1.7;;;;;;;0.6;99.71484;94900.81;;;;
2022/01/06 02:59:41;;;;;;;3.45;1.8;;;;;;;0.65;99.50977;94907.22;;;;
2022/01/06 03:00:42;;;;;;;3.45;1.8;;;;;;;0.65;99.50977;94907.22;;;;
2022/01/06 03:01:43;;;;;;;3.45;1.8;;;;;;;0.65;99.50977;94907.22;;;;
2022/01/06 03:02:46;;;;;;;3.45;1.8;;;;;;;0.65;99.50977;94907.22;;;;
2022/01/06 03:03:46;;;;;;;3.45;1.8;;;;;;;0.65;99.50977;94907.22;;;;
2022/01/06 03:04:47;;;;;;;3.45;1.8;;;;;;;0.65;99.50977;94907.22;;;;
2022/01/06 03:05:47;;;;;;;3.45;1.8;;;;;;;0.65;99.50977;94907.22;;;;
2022/01/06 03:06:48;;;;;;;3.45;1.8;;;;;;;0.65;99.50977;94907.22;;;;
2022/01/06 03:07:48;;;;;;;3.45;1.8;;;;;;;0.65;99.50977;94907.22;;;;
2022/01/06 03:08:49;;;;;;;3.45;1.8;;;;;;;0.65;99.50977;94907.22;;;;
2022/01/06 03:09:54;;;;;;;3.45;1.8;;;;;;;0.65;99.50977;94907.22;;;;
2022/01/06 03:10:57;;;;;;;3.8;1.65;;;;;;;0.7;99.35449;94914.12;;;;
2022/01/06 03:11:57;;;;;;;3.8;1.65;;;;;;;0.7;99.35449;94914.12;;;;
2022/01/06 03:12:58;;;;;;;3.8;1.65;;;;;;;0.7;99.35449;94914.12;;;;
2022/01/06 03:13:58;;;;;;;3.8;1.65;;;;;;;0.7;99.35449;94914.12;;;;
2022/01/06 03:14:59;;;;;;;3.8;1.65;;;;;;;0.7;99.35449;94914.12;;;;
2022/01/06 03:16:01;;;;;;;3.8;1.65;;;;;;;0.7;99.35449;94914.12;;;;
2022/01/06 03:17:02;;;;;;;3.8;1.65;;;;;;;0.7;99.35449;94914.12;;;;
2022/01/06 03:18:02;;;;;;;3.8;1.65;;;;;;;0.7;99.35449;94914.12;;;;
2022/01/06 03:19:03;;;;;;;3.8;1.65;;;;;;;0.7;99.35449;94914.12;;;;
2022/01/06 03:20:04;;;;;;;3.8;1.65;;;;;;;0.7;99.35449;94914.12;;;;
2022/01/06 03:21:08;;;;;;;3.6;1.85;;;;;;;0.74;99.21777;94927.85;;;;
2022/01/06 03:22:08;;;;;;;3.6;1.85;;;;;;;0.74;99.21777;94927.85;;;;
2022/01/06 03:23:09;;;;;;;3.6;1.85;;;;;;;0.74;99.21777;94927.85;;;;
2022/01/06 03:24:10;;;;;;;3.6;1.85;;;;;;;0.74;99.21777;94927.85;;;;
2022/01/06 03:25:10;;;;;;;3.6;1.85;;;;;;;0.74;99.21777;94927.85;;;;
2022/01/06 03:26:13;;;;;;;3.6;1.85;;;;;;;0.74;99.21777;94927.85;;;;
2022/01/06 03:27:14;;;;;;;3.6;1.85;;;;;;;0.74;99.21777;94927.85;;;;
2022/01/06 03:28:14;;;;;;;3.6;1.85;;;;;;;0.74;99.21777;94927.85;;;;
2022/01/06 03:29:15;;;;;;;3.6;1.85;;;;;;;0.74;99.21777;94927.85;;;;
2022/01/06 03:30:15;;;;;;;3.6;1.85;;;;;;;0.74;99.21777;94927.85;;;;
2022/01/06 03:31:18;;;;;;;3.6;1.85;;;;;;;0.74;99.21777;94927.85;;;;
2022/01/06 03:32:18;;;;;;;3.6;1.85;;;;;;;0.74;99.21777;94927.85;;;;
2022/01/06 03:33:20;;;;;;;3.6;1.85;;;;;;;0.74;99.21777;94927.85;;;;
2022/01/06 03:34:20;;;;;;;3.6;1.85;;;;;;;0.74;99.21777;94927.85;;;;
2022/01/06 03:35:21;;;;;;;3.6;1.85;;;;;;;0.74;99.21777;94927.85;;;;
2022/01/06 03:36:23;;;;;;;3.6;1.85;;;;;;;0.74;99.21777;94927.85;;;;
2022/01/06 03:37:24;;;;;;;3.6;1.85;;;;;;;0.74;99.21777;94927.85;;;;
2022/01/06 03:38:25;;;;;;;3.6;1.85;;;;;;;0.74;99.21777;94927.85;;;;
2022/01/06 03:39:25;;;;;;;3.6;1.85;;;;;;;0.74;99.21777;94927.85;;;;
2022/01/06 03:40:26;;;;;;;3.6;1.85;;;;;;;0.74;99.21777;94927.85;;;;
2022/01/06 03:41:26;;;;;;;3.6;1.85;;;;;;;0.74;99.21777;94927.85;;;;
2022/01/06 03:42:27;;;;;;;3.5;2;;;;;;;0.69;99.15332;94936.47;;;;
2022/01/06 03:43:27;;;;;;;3.5;2;;;;;;;0.69;99.15332;94936.47;;;;
2022/01/06 03:44:28;;;;;;;3.5;2;;;;;;;0.69;99.15332;94936.47;;;;
2022/01/06 03:45:29;;;;;;;3.5;2;;;;;;;0.69;99.15332;94936.47;;;;
2022/01/06 03:46:30;;;;;;;3.5;2;;;;;;;0.69;99.15332;94936.47;;;;
2022/01/06 03:47:30;;;;;;;3.5;2;;;;;;;0.69;99.15332;94936.47;;;;
2022/01/06 03:48:31;;;;;;;3.5;2;;;;;;;0.69;99.15332;94936.47;;;;
2022/01/06 03:49:31;;;;;;;3.5;2;;;;;;;0.69;99.15332;94936.47;;;;
2022/01/06 03:50:32;;;;;;;3.5;2;;;;;;;0.69;99.15332;94936.47;;;;
2022/01/06 03:51:33;;;;;;;3.5;2;;;;;;;0.69;99.15332;94936.47;;;;
2022/01/06 03:52:34;;;;;;;3.5;2;;;;;;;0.69;99.15332;94936.47;;;;
2022/01/06 03:53:35;;;;;;;4.1;2.05;;;;;;;0.67;99.19238;94932.67;;;;
2022/01/06 03:54:35;;;;;;;4.1;2.05;;;;;;;0.67;99.19238;94932.67;;;;
2022/01/06 03:55:37;;;;;;;4.1;2.05;;;;;;;0.67;99.19238;94932.67;;;;
2022/01/06 03:56:37;;;;;;;4.1;2.05;;;;;;;0.67;99.19238;94932.67;;;;
2022/01/06 03:57:38;;;;;;;4.1;2.05;;;;;;;0.67;99.19238;94932.67;;;;
2022/01/06 03:58:40;;;;;;;4.1;2.05;;;;;;;0.67;99.19238;94932.67;;;;
2022/01/06 03:59:40;;;;;;;4.1;2.05;;;;;;;0.67;99.19238;94932.67;;;;
2022/01/06 04:00:41;;;;;;;4.1;2.05;;;;;;;0.67;99.19238;94932.67;;;;
2022/01/06 04:01:41;;;;;;;4.1;2.05;;;;;;;0.67;99.19238;94932.67;;;;
2022/01/06 04:02:42;;;;;;;4.1;2.05;;;;;;;0.67;99.19238;94932.67;;;;
2022/01/06 04:03:45;;;;;;;4.3;1.9;;;;;;;0.63;99.20215;94945.2;;;;
2022/01/06 04:04:46;;;;;;;4.3;1.9;;;;;;;0.63;99.20215;94945.2;;;;
2022/01/06 04:05:46;;;;;;;4.3;1.9;;;;;;;0.63;99.20215;94945.2;;;;
2022/01/06 04:06:47;;;;;;;4.3;1.9;;;;;;;0.63;99.20215;94945.2;;;;
2022/01/06 04:07:47;;;;;;;4.3;1.9;;;;;;;0.63;99.20215;94945.2;;;;
2022/01/06 04:08:48;;;;;;;4.3;1.9;;;;;;;0.63;99.20215;94945.2;;;;
2022/01/06 04:09:48;;;;;;;4.3;1.9;;;;;;;0.63;99.20215;94945.2;;;;
2022/01/06 04:10:49;;;;;;;4.3;1.9;;;;;;;0.63;99.20215;94945.2;;;;
2022/01/06 04:11:49;;;;;;;4.3;1.9;;;;;;;0.63;99.20215;94945.2;;;;
2022/01/06 04:12:50;;;;;;;4.3;1.9;;;;;;;0.63;99.20215;94945.2;;;;
2022/01/06 04:13:51;;;;;;;4.3;1.9;;;;;;;0.63;99.20215;94945.2;;;;
2022/01/06 04:14:51;;;;;;;2.75;1.65;;;;;;;0.6;99.41309;94955.25;;;;
2022/01/06 04:15:52;;;;;;;2.75;1.65;;;;;;;0.6;99.41309;94955.25;;;;
2022/01/06 04:16:58;;;;;;;2.75;1.65;;;;;;;0.6;99.41309;94955.25;;;;
2022/01/06 04:17:58;;;;;;;2.75;1.65;;;;;;;0.6;99.41309;94955.25;;;;
2022/01/06 04:18:59;;;;;;;2.75;1.65;;;;;;;0.6;99.41309;94955.25;;;;
2022/01/06 04:19:59;;;;;;;2.75;1.65;;;;;;;0.6;99.41309;94955.25;;;;
2022/01/06 04:21:00;;;;;;;2.75;1.65;;;;;;;0.6;99.41309;94955.25;;;;
2022/01/06 04:22:01;;;;;;;2.75;1.65;;;;;;;0.6;99.41309;94955.25;;;;
2022/01/06 04:23:02;;;;;;;2.75;1.65;;;;;;;0.6;99.41309;94955.25;;;;
2022/01/06 04:24:02;;;;;;;2.75;1.65;;;;;;;0.6;99.41309;94955.25;;;;
2022/01/06 04:25:04;;;;;;;4.099999;1.85;;;;;;;0.61;99.45898;94957.34;;;;
2022/01/06 04:26:06;;;;;;;4.099999;1.85;;;;;;;0.61;99.45898;94957.34;;;;
2022/01/06 04:27:07;;;;;;;4.099999;1.85;;;;;;;0.61;99.45898;94957.34;;;;
2022/01/06 04:28:07;;;;;;;4.099999;1.85;;;;;;;0.61;99.45898;94957.34;;;;
2022/01/06 04:29:08;;;;;;;4.099999;1.85;;;;;;;0.61;99.45898;94957.34;;;;
2022/01/06 04:30:08;;;;;;;4.099999;1.85;;;;;;;0.61;99.45898;94957.34;;;;
2022/01/06 04:31:11;;;;;;;4.099999;1.85;;;;;;;0.61;99.45898;94957.34;;;;
2022/01/06 04:32:11;;;;;;;4.099999;1.85;;;;;;;0.61;99.45898;94957.34;;;;
2022/01/06 04:33:12;;;;;;;4.099999;1.85;;;;;;;0.61;99.45898;94957.34;;;;
2022/01/06 04:34:12;;;;;;;4.099999;1.85;;;;;;;0.61;99.45898;94957.34;;;;
2022/01/06 04:35:12;;;;;;;4.099999;1.85;;;;;;;0.61;99.45898;94957.34;;;;
2022/01/06 04:36:13;;;;;;;4;1.95;;;;;;;0.6;99.43652;94968.04;;;;
2022/01/06 04:37:14;;;;;;;4;1.95;;;;;;;0.6;99.43652;94968.04;;;;
2022/01/06 04:38:14;;;;;;;4;1.95;;;;;;;0.6;99.43652;94968.04;;;;
2022/01/06 04:39:15;;;;;;;4;1.95;;;;;;;0.6;99.43652;94968.04;;;;
2022/01/06 04:40:16;;;;;;;4;1.95;;;;;;;0.6;99.43652;94968.04;;;;
2022/01/06 04:41:16;;;;;;;4;1.95;;;;;;;0.6;99.43652;94968.04;;;;
2022/01/06 04:42:17;;;;;;;4;1.95;;;;;;;0.6;99.43652;94968.04;;;;
2022/01/06 04:43:17;;;;;;;4;1.95;;;;;;;0.6;99.43652;94968.04;;;;
2022/01/06 04:44:18;;;;;;;4;1.95;;;;;;;0.6;99.43652;94968.04;;;;
2022/01/06 04:45:19;;;;;;;4;1.95;;;;;;;0.6;99.43652;94968.04;;;;
2022/01/06 04:46:20;;;;;;;4.95;2.3;;;;;;;0.55;99.33008;94981.96;;;;
2022/01/06 04:47:21;;;;;;;4.95;2.3;;;;;;;0.55;99.33008;94981.96;;;;
2022/01/06 04:48:21;;;;;;;4.95;2.3;;;;;;;0.55;99.33008;94981.96;;;;
2022/01/06 04:49:22;;;;;;;4.95;2.3;;;;;;;0.55;99.33008;94981.96;;;;
2022/01/06 04:50:23;;;;;;;4.95;2.3;;;;;;;0.55;99.33008;94981.96;;;;
2022/01/06 04:51:23;;;;;;;4.95;2.3;;;;;;;0.55;99.33008;94981.96;;;;
2022/01/06 04:52:24;;;;;;;4.95;2.3;;;;;;;0.55;99.33008;94981.96;;;;
2022/01/06 04:53:24;;;;;;;4.95;2.3;;;;;;;0.55;99.33008;94981.96;;;;
2022/01/06 04:54:25;;;;;;;4.95;2.3;;;;;;;0.55;99.33008;94981.96;;;;
2022/01/06 04:55:25;;;;;;;4.95;2.3;;;;;;;0.55;99.33008;94981.96;;;;
2022/01/06 04:56:26;;;;;;;4.95;2.3;;;;;;;0.55;99.33008;94981.96;;;;
2022/01/06 04:57:26;;;;;;;4.95;2.3;;;;;;;0.55;99.33008;94981.96;;;;
2022/01/06 04:58:27;;;;;;;4.95;2.3;;;;;;;0.55;99.33008;94981.96;;;;
2022/01/06 04:59:28;;;;;;;4.95;2.3;;;;;;;0.55;99.33008;94981.96;;;;
2022/01/06 05:00:28;;;;;;;4.95;2.3;;;;;;;0.55;99.33008;94981.96;;;;
2022/01/06 05:01:29;;;;;;;4.95;2.3;;;;;;;0.55;99.33008;94981.96;;;;
2022/01/06 05:02:29;;;;;;;4.95;2.3;;;;;;;0.55;99.33008;94981.96;;;;
2022/01/06 05:03:30;;;;;;;4.95;2.3;;;;;;;0.55;99.33008;94981.96;;;;
2022/01/06 05:04:30;;;;;;;4.95;2.3;;;;;;;0.55;99.33008;94981.96;;;;
2022/01/06 05:05:31;;;;;;;4.95;2.3;;;;;;;0.55;99.33008;94981.96;;;;
2022/01/06 05:06:32;;;;;;;4.95;2.3;;;;;;;0.55;99.33008;94981.96;;;;
2022/01/06 05:07:32;;;;;;;4.95;2.3;;;;;;;0.55;99.33008;94981.96;;;;
2022/01/06 05:08:33;;;;;;;4.95;2.3;;;;;;;0.55;99.33008;94981.96;;;;
2022/01/06 05:09:34;;;;;;;4.95;2.3;;;;;;;0.55;99.33008;94981.96;;;;
2022/01/06 05:10:34;;;;;;;4.95;2.3;;;;;;;0.55;99.33008;94981.96;;;;
2022/01/06 05:11:35;;;;;;;4.95;2.3;;;;;;;0.55;99.33008;94981.96;;;;
2022/01/06 05:12:35;;;;;;;4.95;2.3;;;;;;;0.55;99.33008;94981.96;;;;
2022/01/06 05:13:38;;;;;;;4.95;2.3;;;;;;;0.55;99.33008;94981.96;;;;
2022/01/06 05:14:39;;;;;;;4.95;2.3;;;;;;;0.55;99.33008;94981.96;;;;
2022/01/06 05:15:40;;;;;;;4.95;2.3;;;;;;;0.55;99.33008;94981.96;;;;
2022/01/06 05:16:40;;;;;;;4.95;2.3;;;;;;;0.55;99.33008;94981.96;;;;
2022/01/06 05:17:41;;;;;;;4.95;2.3;;;;;;;0.55;99.33008;94981.96;;;;
2022/01/06 05:18:42;;;;;;;3.95;2.4;;;;;;;0.39;100;95002.04;;;;
2022/01/06 05:19:43;;;;;;;3.95;2.4;;;;;;;0.39;100;95002.04;;;;
2022/01/06 05:20:43;;;;;;;3.95;2.4;;;;;;;0.39;100;95002.04;;;;
2022/01/06 05:21:44;;;;;;;3.95;2.4;;;;;;;0.39;100;95002.04;;;;
2022/01/06 05:22:45;;;;;;;3.95;2.4;;;;;;;0.39;100;95002.04;;;;
2022/01/06 05:23:48;;;;;;;3.95;2.4;;;;;;;0.39;100;95002.04;;;;
2022/01/06 05:24:49;;;;;;;3.95;2.4;;;;;;;0.39;100;95002.04;;;;
2022/01/06 05:25:49;;;;;;;3.95;2.4;;;;;;;0.39;100;95002.04;;;;
2022/01/06 05:26:50;;;;;;;3.95;2.4;;;;;;;0.39;100;95002.04;;;;
2022/01/06 05:27:51;;;;;;;3.95;2.4;;;;;;;0.39;100;95002.04;;;;
2022/01/06 05:28:52;;;;;;;3.3;2.15;;;;;;;0.33;100;95009.81;;;;
2022/01/06 05:29:52;;;;;;;3.3;2.15;;;;;;;0.33;100;95009.81;;;;
2022/01/06 05:30:53;;;;;;;3.3;2.15;;;;;;;0.33;100;95009.81;;;;
2022/01/06 05:31:54;;;;;;;3.3;2.15;;;;;;;0.33;100;95009.81;;;;
2022/01/06 05:32:54;;;;;;;3.3;2.15;;;;;;;0.33;100;95009.81;;;;
2022/01/06 05:33:54;;;;;;;3.3;2.15;;;;;;;0.33;100;95009.81;;;;
2022/01/06 05:34:55;;;;;;;3.3;2.15;;;;;;;0.33;100;95009.81;;;;
2022/01/06 05:35:55;;;;;;;3.3;2.15;;;;;;;0.33;100;95009.81;;;;
2022/01/06 05:36:56;;;;;;;3.3;2.15;;;;;;;0.33;100;95009.81;;;;
2022/01/06 05:37:56;;;;;;;3.3;2.15;;;;;;;0.33;100;95009.81;;;;
2022/01/06 05:38:57;;;;;;;3.3;2.15;;;;;;;0.33;100;95009.81;;;;
2022/01/06 05:39:57;;;;;;;4.35;2.2;;;;;;;0.3;100;94998.24;;;;
2022/01/06 05:40:58;;;;;;;4.35;2.2;;;;;;;0.3;100;94998.24;;;;
2022/01/06 05:41:58;;;;;;;4.35;2.2;;;;;;;0.3;100;94998.24;;;;
2022/01/06 05:42:59;;;;;;;4.35;2.2;;;;;;;0.3;100;94998.24;;;;
2022/01/06 05:44:00;;;;;;;4.35;2.2;;;;;;;0.3;100;94998.24;;;;
2022/01/06 05:45:01;;;;;;;4.35;2.2;;;;;;;0.3;100;94998.24;;;;
2022/01/06 05:46:01;;;;;;;4.35;2.2;;;;;;;0.3;100;94998.24;;;;
2022/01/06 05:47:02;;;;;;;4.35;2.2;;;;;;;0.3;100;94998.24;;;;
2022/01/06 05:48:03;;;;;;;4.35;2.2;;;;;;;0.3;100;94998.24;;;;
2022/01/06 05:49:04;;;;;;;4.35;2.2;;;;;;;0.3;100;94998.24;;;;
2022/01/06 05:50:05;;;;;;;4.35;2.2;;;;;;;0.3;100;94998.24;;;;
2022/01/06 05:51:06;;;;;;;4.35;2.2;;;;;;;0.3;100;94998.24;;;;
2022/01/06 05:52:08;;;;;;;4.35;2.2;;;;;;;0.3;100;94998.24;;;;
2022/01/06 05:53:08;;;;;;;4.35;2.2;;;;;;;0.3;100;94998.24;;;;
2022/01/06 05:54:09;;;;;;;4.35;2.2;;;;;;;0.3;100;94998.24;;;;
2022/01/06 05:55:09;;;;;;;4.35;2.2;;;;;;;0.3;100;94998.24;;;;
2022/01/06 05:56:10;;;;;;;4.35;2.2;;;;;;;0.3;100;94998.24;;;;
2022/01/06 05:57:12;;;;;;;4.35;2.2;;;;;;;0.3;100;94998.24;;;;
2022/01/06 05:58:12;;;;;;;4.35;2.2;;;;;;;0.3;100;94998.24;;;;
2022/01/06 05:59:13;;;;;;;4.35;2.2;;;;;;;0.3;100;94998.24;;;;
2022/01/06 06:00:13;;;;;;;4.35;2.2;;;;;;;0.3;100;94998.24;;;;
2022/01/06 06:01:15;;;;;;;4.35;2.1;;;;;;;0.14;100;95014.73;;;;
2022/01/06 06:02:15;;;;;;;4.35;2.1;;;;;;;0.14;100;95014.73;;;;
2022/01/06 06:03:16;;;;;;;4.35;2.1;;;;;;;0.14;100;95014.73;;;;
2022/01/06 06:04:16;;;;;;;4.35;2.1;;;;;;;0.14;100;95014.73;;;;
2022/01/06 06:05:17;;;;;;;4.35;2.1;;;;;;;0.14;100;95014.73;;;;
2022/01/06 06:06:17;;;;;;;4.35;2.1;;;;;;;0.14;100;95014.73;;;;